sensor_id;sensor_type;location;lat;lon;timestamp;P1;durP1;ratioP1;P2;durP2;ratioP2
24277;SDS011;12394;42.692;23.314;2023-11-22T00:00:12;41.53;;;27.20;;
24277;SDS011;12394;42.692;23.314;2023-11-22T00:02:38;46.90;;;29.17;;
24277;SDS011;12394;42.692;23.314;2023-11-22T00:05:04;44.10;;;28.53;;
24277;SDS011;12394;42.692;23.314;2023-11-22T00:07:31;41.33;;;27.60;;
24277;SDS011;12394;42.692;23.314;2023-11-22T00:09:56;47.03;;;29.67;;
24277;SDS011;12394;42.692;23.314;2023-11-22T00:12:23;46.00;;;27.27;;
24277;SDS011;12394;42.692;23.314;2023-11-22T00:14:49;37.70;;;24.80;;
24277;SDS011;12394;42.692;23.314;2023-11-22T00:17:15;40.43;;;25.07;;
24277;SDS011;12394;42.692;23.314;2023-11-22T00:19:46;44.77;;;27.50;;
24277;SDS011;12394;42.692;23.314;2023-11-22T00:22:12;43.07;;;26.90;;
24277;SDS011;12394;42.692;23.314;2023-11-22T00:24:40;45.57;;;26.57;;
24277;SDS011;12394;42.692;23.314;2023-11-22T00:27:06;43.57;;;27.27;;
24277;SDS011;12394;42.692;23.314;2023-11-22T00:29:32;43.97;;;27.57;;
24277;SDS011;12394;42.692;23.314;2023-11-22T00:31:58;47.43;;;28.83;;
24277;SDS011;12394;42.692;23.314;2023-11-22T00:34:25;44.97;;;27.43;;
24277;SDS011;12394;42.692;23.314;2023-11-22T00:36:51;43.47;;;27.60;;
24277;SDS011;12394;42.692;23.314;2023-11-22T00:39:17;43.87;;;28.57;;
24277;SDS011;12394;42.692;23.314;2023-11-22T00:41:42;44.10;;;28.03;;
24277;SDS011;12394;42.692;23.314;2023-11-22T00:44:11;48.23;;;28.77;;
24277;SDS011;12394;42.692;23.314;2023-11-22T00:46:37;44.70;;;28.47;;
24277;SDS011;12394;42.692;23.314;2023-11-22T00:49:03;41.43;;;26.30;;
24277;SDS011;12394;42.692;23.314;2023-11-22T00:51:29;43.10;;;26.40;;
24277;SDS011;12394;42.692;23.314;2023-11-22T00:53:56;39.57;;;26.07;;
24277;SDS011;12394;42.692;23.314;2023-11-22T00:56:25;49.03;;;27.10;;
24277;SDS011;12394;42.692;23.314;2023-11-22T00:58:50;42.63;;;26.53;;
24277;SDS011;12394;42.692;23.314;2023-11-22T01:01:18;43.27;;;26.73;;
24277;SDS011;12394;42.692;23.314;2023-11-22T01:03:44;50.67;;;27.47;;
24277;SDS011;12394;42.692;23.314;2023-11-22T01:06:09;39.37;;;26.63;;
24277;SDS011;12394;42.692;23.314;2023-11-22T01:08:35;47.40;;;28.43;;
24277;SDS011;12394;42.692;23.314;2023-11-22T01:11:01;41.53;;;28.50;;
24277;SDS011;12394;42.692;23.314;2023-11-22T01:13:28;44.57;;;26.70;;
24277;SDS011;12394;42.692;23.314;2023-11-22T01:15:54;45.20;;;28.77;;
24277;SDS011;12394;42.692;23.314;2023-11-22T01:18:19;47.80;;;28.40;;
24277;SDS011;12394;42.692;23.314;2023-11-22T01:20:45;43.47;;;28.17;;
24277;SDS011;12394;42.692;23.314;2023-11-22T01:23:11;42.47;;;27.07;;
24277;SDS011;12394;42.692;23.314;2023-11-22T01:25:36;45.40;;;26.07;;
24277;SDS011;12394;42.692;23.314;2023-11-22T01:28:01;33.23;;;22.20;;
24277;SDS011;12394;42.692;23.314;2023-11-22T01:30:28;36.07;;;22.80;;
24277;SDS011;12394;42.692;23.314;2023-11-22T01:32:54;36.17;;;22.77;;
24277;SDS011;12394;42.692;23.314;2023-11-22T01:35:20;33.13;;;22.00;;
24277;SDS011;12394;42.692;23.314;2023-11-22T01:37:46;34.43;;;20.20;;
24277;SDS011;12394;42.692;23.314;2023-11-22T01:40:11;34.00;;;20.23;;
24277;SDS011;12394;42.692;23.314;2023-11-22T01:42:37;33.43;;;19.23;;
24277;SDS011;12394;42.692;23.314;2023-11-22T01:45:05;31.93;;;20.17;;
24277;SDS011;12394;42.692;23.314;2023-11-22T01:47:31;30.73;;;19.43;;
24277;SDS011;12394;42.692;23.314;2023-11-22T01:49:57;34.90;;;20.30;;
24277;SDS011;12394;42.692;23.314;2023-11-22T01:52:23;31.40;;;20.77;;
24277;SDS011;12394;42.692;23.314;2023-11-22T01:54:49;32.90;;;19.87;;
24277;SDS011;12394;42.692;23.314;2023-11-22T01:57:14;29.53;;;19.60;;
24277;SDS011;12394;42.692;23.314;2023-11-22T01:59:40;28.83;;;18.03;;
24277;SDS011;12394;42.692;23.314;2023-11-22T02:02:08;26.03;;;18.43;;
24277;SDS011;12394;42.692;23.314;2023-11-22T02:04:34;29.33;;;17.87;;
24277;SDS011;12394;42.692;23.314;2023-11-22T02:06:59;29.33;;;18.93;;
24277;SDS011;12394;42.692;23.314;2023-11-22T02:09:25;29.03;;;18.60;;
24277;SDS011;12394;42.692;23.314;2023-11-22T02:11:50;30.33;;;17.80;;
24277;SDS011;12394;42.692;23.314;2023-11-22T02:14:16;32.77;;;18.73;;
24277;SDS011;12394;42.692;23.314;2023-11-22T02:16:41;31.60;;;17.60;;
24277;SDS011;12394;42.692;23.314;2023-11-22T02:19:08;26.93;;;17.20;;
24277;SDS011;12394;42.692;23.314;2023-11-22T02:21:39;23.93;;;16.70;;
24277;SDS011;12394;42.692;23.314;2023-11-22T02:24:05;25.57;;;15.77;;
24277;SDS011;12394;42.692;23.314;2023-11-22T02:26:32;30.67;;;17.63;;
24277;SDS011;12394;42.692;23.314;2023-11-22T02:28:58;24.33;;;17.27;;
24277;SDS011;12394;42.692;23.314;2023-11-22T02:31:24;25.27;;;16.20;;
24277;SDS011;12394;42.692;23.314;2023-11-22T02:33:50;25.57;;;16.03;;
24277;SDS011;12394;42.692;23.314;2023-11-22T02:36:15;27.80;;;17.40;;
24277;SDS011;12394;42.692;23.314;2023-11-22T02:38:41;23.23;;;15.97;;
24277;SDS011;12394;42.692;23.314;2023-11-22T02:41:09;21.33;;;14.60;;
24277;SDS011;12394;42.692;23.314;2023-11-22T02:43:34;22.50;;;15.70;;
24277;SDS011;12394;42.692;23.314;2023-11-22T02:46:00;23.23;;;15.23;;
24277;SDS011;12394;42.692;23.314;2023-11-22T02:48:26;21.03;;;14.80;;
24277;SDS011;12394;42.692;23.314;2023-11-22T02:50:51;22.37;;;15.20;;
24277;SDS011;12394;42.692;23.314;2023-11-22T02:53:19;25.20;;;15.60;;
24277;SDS011;12394;42.692;23.314;2023-11-22T02:55:44;24.37;;;15.20;;
24277;SDS011;12394;42.692;23.314;2023-11-22T02:58:10;25.07;;;15.43;;
24277;SDS011;12394;42.692;23.314;2023-11-22T03:00:37;18.93;;;13.87;;
24277;SDS011;12394;42.692;23.314;2023-11-22T03:03:04;22.23;;;14.13;;
24277;SDS011;12394;42.692;23.314;2023-11-22T03:05:34;22.73;;;14.83;;
24277;SDS011;12394;42.692;23.314;2023-11-22T03:08:01;21.97;;;15.37;;
24277;SDS011;12394;42.692;23.314;2023-11-22T03:10:27;20.30;;;14.23;;
24277;SDS011;12394;42.692;23.314;2023-11-22T03:12:53;19.70;;;14.37;;
24277;SDS011;12394;42.692;23.314;2023-11-22T03:15:19;26.03;;;14.70;;
24277;SDS011;12394;42.692;23.314;2023-11-22T03:17:44;21.63;;;14.10;;
24277;SDS011;12394;42.692;23.314;2023-11-22T03:20:10;20.63;;;14.97;;
24277;SDS011;12394;42.692;23.314;2023-11-22T03:22:36;21.27;;;13.47;;
24277;SDS011;12394;42.692;23.314;2023-11-22T03:25:02;25.83;;;15.53;;
24277;SDS011;12394;42.692;23.314;2023-11-22T03:27:29;20.80;;;15.10;;
24277;SDS011;12394;42.692;23.314;2023-11-22T03:29:55;21.97;;;15.03;;
24277;SDS011;12394;42.692;23.314;2023-11-22T03:32:20;19.50;;;13.63;;
24277;SDS011;12394;42.692;23.314;2023-11-22T03:34:46;23.30;;;15.83;;
24277;SDS011;12394;42.692;23.314;2023-11-22T03:37:12;34.07;;;17.63;;
24277;SDS011;12394;42.692;23.314;2023-11-22T03:39:38;22.07;;;15.43;;
24277;SDS011;12394;42.692;23.314;2023-11-22T03:42:03;20.43;;;15.23;;
24277;SDS011;12394;42.692;23.314;2023-11-22T03:44:29;19.60;;;14.17;;
24277;SDS011;12394;42.692;23.314;2023-11-22T03:46:55;28.50;;;16.90;;
24277;SDS011;12394;42.692;23.314;2023-11-22T03:49:20;24.47;;;16.27;;
24277;SDS011;12394;42.692;23.314;2023-11-22T03:51:46;27.67;;;16.67;;
24277;SDS011;12394;42.692;23.314;2023-11-22T03:54:13;25.00;;;16.17;;
24277;SDS011;12394;42.692;23.314;2023-11-22T03:56:38;23.27;;;15.77;;
24277;SDS011;12394;42.692;23.314;2023-11-22T03:59:04;23.73;;;16.00;;
24277;SDS011;12394;42.692;23.314;2023-11-22T04:01:29;24.10;;;15.23;;
24277;SDS011;12394;42.692;23.314;2023-11-22T04:03:55;20.00;;;14.60;;
24277;SDS011;12394;42.692;23.314;2023-11-22T04:06:21;23.40;;;16.00;;
24277;SDS011;12394;42.692;23.314;2023-11-22T04:08:48;24.10;;;16.00;;
24277;SDS011;12394;42.692;23.314;2023-11-22T04:11:14;23.67;;;15.90;;
24277;SDS011;12394;42.692;23.314;2023-11-22T04:13:40;22.67;;;15.90;;
24277;SDS011;12394;42.692;23.314;2023-11-22T04:16:07;22.33;;;15.10;;
24277;SDS011;12394;42.692;23.314;2023-11-22T04:18:37;22.33;;;15.43;;
24277;SDS011;12394;42.692;23.314;2023-11-22T04:21:03;22.77;;;15.23;;
24277;SDS011;12394;42.692;23.314;2023-11-22T04:23:30;24.10;;;15.23;;
24277;SDS011;12394;42.692;23.314;2023-11-22T04:25:56;26.07;;;16.53;;
24277;SDS011;12394;42.692;23.314;2023-11-22T04:28:23;26.50;;;16.13;;
24277;SDS011;12394;42.692;23.314;2023-11-22T04:30:49;27.67;;;18.00;;
24277;SDS011;12394;42.692;23.314;2023-11-22T04:33:14;28.30;;;17.60;;
24277;SDS011;12394;42.692;23.314;2023-11-22T04:35:40;23.33;;;16.83;;
24277;SDS011;12394;42.692;23.314;2023-11-22T04:38:06;25.93;;;16.80;;
24277;SDS011;12394;42.692;23.314;2023-11-22T04:40:32;24.53;;;16.10;;
24277;SDS011;12394;42.692;23.314;2023-11-22T04:42:57;28.20;;;17.13;;
24277;SDS011;12394;42.692;23.314;2023-11-22T04:45:23;26.70;;;15.73;;
24277;SDS011;12394;42.692;23.314;2023-11-22T04:47:48;22.23;;;15.63;;
24277;SDS011;12394;42.692;23.314;2023-11-22T04:50:13;27.40;;;15.53;;
24277;SDS011;12394;42.692;23.314;2023-11-22T04:52:39;27.77;;;13.97;;
24277;SDS011;12394;42.692;23.314;2023-11-22T04:55:04;26.40;;;14.90;;
24277;SDS011;12394;42.692;23.314;2023-11-22T04:57:30;21.43;;;13.90;;
24277;SDS011;12394;42.692;23.314;2023-11-22T04:59:55;22.40;;;15.80;;
24277;SDS011;12394;42.692;23.314;2023-11-22T05:02:21;25.23;;;15.73;;
24277;SDS011;12394;42.692;23.314;2023-11-22T05:04:46;26.10;;;14.90;;
24277;SDS011;12394;42.692;23.314;2023-11-22T05:07:17;23.87;;;15.90;;
24277;SDS011;12394;42.692;23.314;2023-11-22T05:09:44;19.97;;;13.73;;
24277;SDS011;12394;42.692;23.314;2023-11-22T05:12:09;21.03;;;15.37;;
24277;SDS011;12394;42.692;23.314;2023-11-22T05:14:36;22.37;;;15.30;;
24277;SDS011;12394;42.692;23.314;2023-11-22T05:17:01;27.43;;;15.90;;
24277;SDS011;12394;42.692;23.314;2023-11-22T05:19:27;25.20;;;14.77;;
24277;SDS011;12394;42.692;23.314;2023-11-22T05:21:52;23.70;;;16.10;;
24277;SDS011;12394;42.692;23.314;2023-11-22T05:24:18;21.93;;;14.77;;
24277;SDS011;12394;42.692;23.314;2023-11-22T05:26:44;22.90;;;14.80;;
24277;SDS011;12394;42.692;23.314;2023-11-22T05:29:10;18.53;;;14.03;;
24277;SDS011;12394;42.692;23.314;2023-11-22T05:31:35;21.30;;;14.77;;
24277;SDS011;12394;42.692;23.314;2023-11-22T05:34:02;24.83;;;14.30;;
24277;SDS011;12394;42.692;23.314;2023-11-22T05:36:28;24.13;;;15.37;;
24277;SDS011;12394;42.692;23.314;2023-11-22T05:38:54;21.40;;;15.40;;
24277;SDS011;12394;42.692;23.314;2023-11-22T05:41:20;22.70;;;15.50;;
24277;SDS011;12394;42.692;23.314;2023-11-22T05:43:45;24.93;;;15.07;;
24277;SDS011;12394;42.692;23.314;2023-11-22T05:46:11;23.17;;;14.60;;
24277;SDS011;12394;42.692;23.314;2023-11-22T05:48:37;22.27;;;14.40;;
24277;SDS011;12394;42.692;23.314;2023-11-22T05:51:03;19.47;;;13.53;;
24277;SDS011;12394;42.692;23.314;2023-11-22T05:53:28;21.30;;;14.87;;
24277;SDS011;12394;42.692;23.314;2023-11-22T05:55:54;23.80;;;15.27;;
24277;SDS011;12394;42.692;23.314;2023-11-22T05:58:19;21.80;;;14.43;;
24277;SDS011;12394;42.692;23.314;2023-11-22T06:00:46;21.53;;;15.43;;
24277;SDS011;12394;42.692;23.314;2023-11-22T06:03:12;25.30;;;17.10;;
24277;SDS011;12394;42.692;23.314;2023-11-22T06:05:38;27.03;;;17.53;;
24277;SDS011;12394;42.692;23.314;2023-11-22T06:08:06;22.03;;;15.53;;
24277;SDS011;12394;42.692;23.314;2023-11-22T06:10:34;24.97;;;16.63;;
24277;SDS011;12394;42.692;23.314;2023-11-22T06:12:59;26.87;;;16.33;;
24277;SDS011;12394;42.692;23.314;2023-11-22T06:15:25;21.37;;;15.60;;
24277;SDS011;12394;42.692;23.314;2023-11-22T06:17:50;24.50;;;16.37;;
24277;SDS011;12394;42.692;23.314;2023-11-22T06:20:15;21.93;;;16.30;;
24277;SDS011;12394;42.692;23.314;2023-11-22T06:22:41;21.53;;;14.13;;
24277;SDS011;12394;42.692;23.314;2023-11-22T06:25:10;17.57;;;12.87;;
24277;SDS011;12394;42.692;23.314;2023-11-22T06:27:37;21.67;;;13.70;;
24277;SDS011;12394;42.692;23.314;2023-11-22T06:30:03;18.33;;;13.43;;
24277;SDS011;12394;42.692;23.314;2023-11-22T06:32:31;23.07;;;14.67;;
24277;SDS011;12394;42.692;23.314;2023-11-22T06:34:57;17.80;;;13.03;;
24277;SDS011;12394;42.692;23.314;2023-11-22T06:37:22;24.63;;;13.70;;
24277;SDS011;12394;42.692;23.314;2023-11-22T06:39:47;20.10;;;13.20;;
24277;SDS011;12394;42.692;23.314;2023-11-22T06:58:03;21.37;;;14.40;;
24277;SDS011;12394;42.692;23.314;2023-11-22T07:00:30;16.13;;;11.20;;
24277;SDS011;12394;42.692;23.314;2023-11-22T07:02:55;25.87;;;20.10;;
24277;SDS011;12394;42.692;23.314;2023-11-22T07:05:21;40.57;;;27.80;;
24277;SDS011;12394;42.692;23.314;2023-11-22T07:07:46;17.80;;;11.03;;
24277;SDS011;12394;42.692;23.314;2023-11-22T07:10:14;15.80;;;11.13;;
24277;SDS011;12394;42.692;23.314;2023-11-22T07:12:40;18.33;;;11.00;;
24277;SDS011;12394;42.692;23.314;2023-11-22T07:15:08;16.33;;;10.73;;
24277;SDS011;12394;42.692;23.314;2023-11-22T07:17:34;20.47;;;11.97;;
24277;SDS011;12394;42.692;23.314;2023-11-22T07:20:00;15.53;;;11.50;;
24277;SDS011;12394;42.692;23.314;2023-11-22T07:22:26;17.07;;;13.07;;
24277;SDS011;12394;42.692;23.314;2023-11-22T07:24:51;17.00;;;11.63;;
24277;SDS011;12394;42.692;23.314;2023-11-22T07:27:19;15.60;;;10.20;;
24277;SDS011;12394;42.692;23.314;2023-11-22T07:29:45;17.40;;;12.07;;
24277;SDS011;12394;42.692;23.314;2023-11-22T07:32:11;14.10;;;10.37;;
24277;SDS011;12394;42.692;23.314;2023-11-22T07:34:37;12.57;;;10.37;;
24277;SDS011;12394;42.692;23.314;2023-11-22T07:37:07;14.93;;;11.23;;
24277;SDS011;12394;42.692;23.314;2023-11-22T07:39:34;14.07;;;10.20;;
24277;SDS011;12394;42.692;23.314;2023-11-22T07:42:03;14.37;;;10.87;;
24277;SDS011;12394;42.692;23.314;2023-11-22T07:44:29;16.60;;;12.20;;
24277;SDS011;12394;42.692;23.314;2023-11-22T07:46:57;14.27;;;10.93;;
24277;SDS011;12394;42.692;23.314;2023-11-22T07:49:24;15.33;;;11.53;;
24277;SDS011;12394;42.692;23.314;2023-11-22T07:51:50;15.93;;;11.50;;
24277;SDS011;12394;42.692;23.314;2023-11-22T07:54:18;13.87;;;10.70;;
24277;SDS011;12394;42.692;23.314;2023-11-22T07:56:47;13.97;;;10.40;;
24277;SDS011;12394;42.692;23.314;2023-11-22T07:59:16;16.63;;;12.10;;
24277;SDS011;12394;42.692;23.314;2023-11-22T08:01:42;18.00;;;13.47;;
24277;SDS011;12394;42.692;23.314;2023-11-22T08:04:08;24.77;;;15.67;;
24277;SDS011;12394;42.692;23.314;2023-11-22T08:06:34;26.00;;;17.77;;
24277;SDS011;12394;42.692;23.314;2023-11-22T08:09:00;29.33;;;21.13;;
24277;SDS011;12394;42.692;23.314;2023-11-22T08:11:26;31.03;;;20.57;;
24277;SDS011;12394;42.692;23.314;2023-11-22T08:13:54;32.83;;;21.37;;
24277;SDS011;12394;42.692;23.314;2023-11-22T08:16:23;33.27;;;20.40;;
24277;SDS011;12394;42.692;23.314;2023-11-22T08:18:48;33.67;;;21.60;;
24277;SDS011;12394;42.692;23.314;2023-11-22T08:21:14;32.20;;;22.07;;
24277;SDS011;12394;42.692;23.314;2023-11-22T08:23:39;40.57;;;27.27;;
24277;SDS011;12394;42.692;23.314;2023-11-22T08:26:05;32.90;;;23.27;;
24277;SDS011;12394;42.692;23.314;2023-11-22T08:28:31;33.13;;;21.47;;
24277;SDS011;12394;42.692;23.314;2023-11-22T08:30:57;34.60;;;21.70;;
24277;SDS011;12394;42.692;23.314;2023-11-22T08:33:22;34.87;;;23.73;;
24277;SDS011;12394;42.692;23.314;2023-11-22T08:35:48;37.63;;;22.73;;
24277;SDS011;12394;42.692;23.314;2023-11-22T08:38:17;26.13;;;18.27;;
24277;SDS011;12394;42.692;23.314;2023-11-22T08:40:44;24.87;;;17.87;;
24277;SDS011;12394;42.692;23.314;2023-11-22T08:43:09;24.97;;;16.80;;
24277;SDS011;12394;42.692;23.314;2023-11-22T08:45:35;20.97;;;15.07;;
24277;SDS011;12394;42.692;23.314;2023-11-22T08:48:00;25.17;;;16.83;;
24277;SDS011;12394;42.692;23.314;2023-11-22T08:50:26;28.37;;;16.00;;
24277;SDS011;12394;42.692;23.314;2023-11-22T08:52:52;81.77;;;52.17;;
24277;SDS011;12394;42.692;23.314;2023-11-22T08:55:21;26.57;;;17.77;;
24277;SDS011;12394;42.692;23.314;2023-11-22T08:57:47;22.33;;;17.17;;
24277;SDS011;12394;42.692;23.314;2023-11-22T09:00:13;23.97;;;16.97;;
24277;SDS011;12394;42.692;23.314;2023-11-22T09:02:39;28.07;;;18.27;;
24277;SDS011;12394;42.692;23.314;2023-11-22T09:05:05;24.20;;;16.97;;
24277;SDS011;12394;42.692;23.314;2023-11-22T09:07:33;23.70;;;16.70;;
24277;SDS011;12394;42.692;23.314;2023-11-22T09:10:01;25.30;;;15.57;;
24277;SDS011;12394;42.692;23.314;2023-11-22T09:12:38;24.63;;;15.47;;
24277;SDS011;12394;42.692;23.314;2023-11-22T09:15:07;22.57;;;16.43;;
24277;SDS011;12394;42.692;23.314;2023-11-22T09:17:37;26.30;;;17.67;;
24277;SDS011;12394;42.692;23.314;2023-11-22T09:22:43;26.47;;;18.87;;
24277;SDS011;12394;42.692;23.314;2023-11-22T09:25:13;29.77;;;17.63;;
24277;SDS011;12394;42.692;23.314;2023-11-22T09:27:41;32.77;;;17.63;;
24277;SDS011;12394;42.692;23.314;2023-11-22T09:30:12;29.30;;;18.20;;
24277;SDS011;12394;42.692;23.314;2023-11-22T09:32:44;24.23;;;17.03;;
24277;SDS011;12394;42.692;23.314;2023-11-22T09:35:14;22.70;;;14.87;;
24277;SDS011;12394;42.692;23.314;2023-11-22T09:37:40;19.87;;;14.60;;
24277;SDS011;12394;42.692;23.314;2023-11-22T09:40:09;17.93;;;13.33;;
24277;SDS011;12394;42.692;23.314;2023-11-22T09:42:36;24.90;;;16.20;;
24277;SDS011;12394;42.692;23.314;2023-11-22T09:45:02;23.87;;;15.83;;
24277;SDS011;12394;42.692;23.314;2023-11-22T09:47:28;23.47;;;14.53;;
24277;SDS011;12394;42.692;23.314;2023-11-22T09:49:58;22.20;;;14.30;;
24277;SDS011;12394;42.692;23.314;2023-11-22T09:52:30;24.17;;;15.43;;
24277;SDS011;12394;42.692;23.314;2023-11-22T09:54:59;24.90;;;15.43;;
24277;SDS011;12394;42.692;23.314;2023-11-22T09:57:27;21.00;;;14.50;;
24277;SDS011;12394;42.692;23.314;2023-11-22T09:59:55;23.57;;;14.77;;
24277;SDS011;12394;42.692;23.314;2023-11-22T10:02:22;32.37;;;22.30;;
24277;SDS011;12394;42.692;23.314;2023-11-22T10:04:52;29.70;;;18.57;;
24277;SDS011;12394;42.692;23.314;2023-11-22T10:07:18;23.17;;;16.13;;
24277;SDS011;12394;42.692;23.314;2023-11-22T10:09:44;20.70;;;13.27;;
24277;SDS011;12394;42.692;23.314;2023-11-22T10:12:11;22.57;;;15.43;;
24277;SDS011;12394;42.692;23.314;2023-11-22T10:14:38;25.57;;;16.93;;
24277;SDS011;12394;42.692;23.314;2023-11-22T10:17:03;22.03;;;14.83;;
24277;SDS011;12394;42.692;23.314;2023-11-22T10:19:31;23.13;;;15.47;;
24277;SDS011;12394;42.692;23.314;2023-11-22T10:22:07;19.80;;;14.37;;
24277;SDS011;12394;42.692;23.314;2023-11-22T10:24:52;17.87;;;13.33;;
24277;SDS011;12394;42.692;23.314;2023-11-22T10:27:20;19.93;;;12.97;;
24277;SDS011;12394;42.692;23.314;2023-11-22T10:29:45;19.63;;;13.20;;
24277;SDS011;12394;42.692;23.314;2023-11-22T10:32:13;21.67;;;14.07;;
24277;SDS011;12394;42.692;23.314;2023-11-22T10:34:38;22.43;;;13.67;;
24277;SDS011;12394;42.692;23.314;2023-11-22T10:37:04;19.73;;;13.67;;
24277;SDS011;12394;42.692;23.314;2023-11-22T10:39:30;22.33;;;15.03;;
24277;SDS011;12394;42.692;23.314;2023-11-22T10:41:55;24.20;;;14.20;;
24277;SDS011;12394;42.692;23.314;2023-11-22T10:44:22;21.33;;;15.03;;
24277;SDS011;12394;42.692;23.314;2023-11-22T10:46:48;24.43;;;14.20;;
24277;SDS011;12394;42.692;23.314;2023-11-22T10:49:15;24.63;;;15.47;;
24277;SDS011;12394;42.692;23.314;2023-11-22T10:51:41;19.57;;;14.63;;
24277;SDS011;12394;42.692;23.314;2023-11-22T10:54:14;21.50;;;14.90;;
24277;SDS011;12394;42.692;23.314;2023-11-22T10:56:41;23.73;;;15.90;;
24277;SDS011;12394;42.692;23.314;2023-11-22T10:59:13;18.73;;;13.63;;
24277;SDS011;12394;42.692;23.314;2023-11-22T11:01:41;28.67;;;20.60;;
24277;SDS011;12394;42.692;23.314;2023-11-22T11:04:32;21.00;;;13.13;;
24277;SDS011;12394;42.692;23.314;2023-11-22T11:07:01;22.87;;;13.63;;
24277;SDS011;12394;42.692;23.314;2023-11-22T11:09:27;22.90;;;14.70;;
24277;SDS011;12394;42.692;23.314;2023-11-22T11:11:57;22.27;;;14.47;;
24277;SDS011;12394;42.692;23.314;2023-11-22T11:14:24;22.53;;;15.57;;
24277;SDS011;12394;42.692;23.314;2023-11-22T11:16:52;23.03;;;16.07;;
24277;SDS011;12394;42.692;23.314;2023-11-22T11:19:19;25.57;;;15.70;;
24277;SDS011;12394;42.692;23.314;2023-11-22T11:21:50;29.07;;;17.27;;
24277;SDS011;12394;42.692;23.314;2023-11-22T11:24:16;28.90;;;16.33;;
24277;SDS011;12394;42.692;23.314;2023-11-22T11:26:47;24.60;;;16.43;;
24277;SDS011;12394;42.692;23.314;2023-11-22T11:29:35;27.33;;;19.07;;
24277;SDS011;12394;42.692;23.314;2023-11-22T11:32:09;29.67;;;18.50;;
24277;SDS011;12394;42.692;23.314;2023-11-22T11:34:46;23.53;;;18.13;;
24277;SDS011;12394;42.692;23.314;2023-11-22T11:37:13;25.63;;;18.70;;
24277;SDS011;12394;42.692;23.314;2023-11-22T11:39:59;25.50;;;18.57;;
24277;SDS011;12394;42.692;23.314;2023-11-22T11:42:25;26.77;;;18.60;;
24277;SDS011;12394;42.692;23.314;2023-11-22T11:45:02;31.63;;;20.63;;
24277;SDS011;12394;42.692;23.314;2023-11-22T11:47:30;30.37;;;20.17;;
24277;SDS011;12394;42.692;23.314;2023-11-22T11:49:56;33.70;;;20.43;;
24277;SDS011;12394;42.692;23.314;2023-11-22T11:52:24;31.33;;;20.07;;
24277;SDS011;12394;42.692;23.314;2023-11-22T11:54:50;32.87;;;19.17;;
24277;SDS011;12394;42.692;23.314;2023-11-22T11:57:16;32.20;;;19.03;;
24277;SDS011;12394;42.692;23.314;2023-11-22T11:59:41;36.37;;;21.20;;
24277;SDS011;12394;42.692;23.314;2023-11-22T12:02:07;31.17;;;19.13;;
24277;SDS011;12394;42.692;23.314;2023-11-22T12:04:33;29.77;;;20.70;;
24277;SDS011;12394;42.692;23.314;2023-11-22T12:06:59;36.30;;;20.93;;
24277;SDS011;12394;42.692;23.314;2023-11-22T12:09:25;31.10;;;21.23;;
24277;SDS011;12394;42.692;23.314;2023-11-22T12:11:52;27.67;;;21.03;;
24277;SDS011;12394;42.692;23.314;2023-11-22T12:14:20;29.80;;;20.93;;
24277;SDS011;12394;42.692;23.314;2023-11-22T12:16:50;26.13;;;19.67;;
24277;SDS011;12394;42.692;23.314;2023-11-22T12:19:22;25.73;;;17.80;;
24277;SDS011;12394;42.692;23.314;2023-11-22T12:21:48;25.37;;;17.80;;
24277;SDS011;12394;42.692;23.314;2023-11-22T12:24:14;23.17;;;18.33;;
24277;SDS011;12394;42.692;23.314;2023-11-22T12:26:44;21.67;;;16.53;;
24277;SDS011;12394;42.692;23.314;2023-11-22T12:29:13;26.37;;;17.30;;
24277;SDS011;12394;42.692;23.314;2023-11-22T12:31:45;20.77;;;14.57;;
24277;SDS011;12394;42.692;23.314;2023-11-22T12:34:14;23.40;;;14.80;;
24277;SDS011;12394;42.692;23.314;2023-11-22T12:36:40;23.13;;;15.07;;
24277;SDS011;12394;42.692;23.314;2023-11-22T12:39:07;20.80;;;13.40;;
24277;SDS011;12394;42.692;23.314;2023-11-22T12:41:36;22.67;;;13.23;;
24277;SDS011;12394;42.692;23.314;2023-11-22T12:44:07;52.83;;;32.50;;
24277;SDS011;12394;42.692;23.314;2023-11-22T12:49:26;20.87;;;12.67;;
24277;SDS011;12394;42.692;23.314;2023-11-22T12:51:52;20.90;;;12.03;;
24277;SDS011;12394;42.692;23.314;2023-11-22T12:54:19;19.67;;;12.30;;
24277;SDS011;12394;42.692;23.314;2023-11-22T12:56:51;22.40;;;12.87;;
24277;SDS011;12394;42.692;23.314;2023-11-22T12:59:23;19.10;;;12.57;;
24277;SDS011;12394;42.692;23.314;2023-11-22T13:01:49;18.00;;;12.93;;
24277;SDS011;12394;42.692;23.314;2023-11-22T13:04:14;17.50;;;12.07;;
24277;SDS011;12394;42.692;23.314;2023-11-22T13:06:40;21.33;;;11.40;;
24277;SDS011;12394;42.692;23.314;2023-11-22T13:09:06;27.07;;;12.10;;
24277;SDS011;12394;42.692;23.314;2023-11-22T13:11:31;29.77;;;12.60;;
24277;SDS011;12394;42.692;23.314;2023-11-22T13:13:58;18.03;;;12.87;;
24277;SDS011;12394;42.692;23.314;2023-11-22T13:16:23;16.17;;;11.93;;
24277;SDS011;12394;42.692;23.314;2023-11-22T13:18:49;23.37;;;12.63;;
24277;SDS011;12394;42.692;23.314;2023-11-22T13:21:15;24.17;;;12.73;;
24277;SDS011;12394;42.692;23.314;2023-11-22T13:23:40;25.23;;;12.83;;
24277;SDS011;12394;42.692;23.314;2023-11-22T13:26:05;26.53;;;13.67;;
24277;SDS011;12394;42.692;23.314;2023-11-22T13:28:34;30.07;;;12.80;;
24277;SDS011;12394;42.692;23.314;2023-11-22T13:30:59;27.33;;;13.23;;
24277;SDS011;12394;42.692;23.314;2023-11-22T13:33:25;24.03;;;12.47;;
24277;SDS011;12394;42.692;23.314;2023-11-22T13:35:53;19.67;;;12.30;;
24277;SDS011;12394;42.692;23.314;2023-11-22T13:38:18;25.53;;;12.83;;
24277;SDS011;12394;42.692;23.314;2023-11-22T13:40:44;27.83;;;13.73;;
24277;SDS011;12394;42.692;23.314;2023-11-22T13:43:11;18.60;;;13.20;;
24277;SDS011;12394;42.692;23.314;2023-11-22T13:45:38;18.03;;;13.37;;
24277;SDS011;12394;42.692;23.314;2023-11-22T13:48:06;31.07;;;12.63;;
24277;SDS011;12394;42.692;23.314;2023-11-22T13:50:34;25.43;;;12.47;;
24277;SDS011;12394;42.692;23.314;2023-11-22T13:53:00;19.43;;;11.53;;
24277;SDS011;12394;42.692;23.314;2023-11-22T13:55:26;15.23;;;10.37;;
24277;SDS011;12394;42.692;23.314;2023-11-22T13:57:53;14.93;;;9.70;;
24277;SDS011;12394;42.692;23.314;2023-11-22T14:00:20;16.77;;;10.27;;
24277;SDS011;12394;42.692;23.314;2023-11-22T14:02:55;19.07;;;11.30;;
24277;SDS011;12394;42.692;23.314;2023-11-22T14:05:25;15.87;;;9.50;;
24277;SDS011;12394;42.692;23.314;2023-11-22T14:07:54;27.50;;;12.37;;
24277;SDS011;12394;42.692;23.314;2023-11-22T14:10:20;18.57;;;11.40;;
24277;SDS011;12394;42.692;23.314;2023-11-22T14:12:47;17.03;;;9.97;;
24277;SDS011;12394;42.692;23.314;2023-11-22T14:15:14;23.03;;;9.90;;
24277;SDS011;12394;42.692;23.314;2023-11-22T14:17:40;18.67;;;9.63;;
24277;SDS011;12394;42.692;23.314;2023-11-22T14:20:12;17.20;;;8.93;;
24277;SDS011;12394;42.692;23.314;2023-11-22T14:22:38;36.20;;;10.27;;
24277;SDS011;12394;42.692;23.314;2023-11-22T14:25:05;25.33;;;10.30;;
24277;SDS011;12394;42.692;23.314;2023-11-22T14:27:39;24.10;;;11.60;;